Wednesday, February 20, 2019, 3:32 PM EST
Back to Local

KMTP, Montauk Airport

Location: Montauk, NY, United States Lat: 41.067
Local Time: 3:32 PM EST (20:32 GMT) Lon: -71.917
Time Zone: US/Eastern Elev: 6 ft

Show me the last for .
Show Coded

Time T Td Feel RH Dir Speed Gust Alt SLP Vis Weather Sky Remarks
2019-02-20 14:54 30 19 22 63 210° 8 - 30.52 30.52 0 None
2019-02-20 13:54 29 16 25 57 200° 3 - 30.52 30.52 0 None
2019-02-20 12:54 29 12 25 48 Variable 3 - 30.52 30.52 0 6-hr Min Temp (1pm): 25.0°F
6-hr Max Temp (1pm): 28.9°F
2019-02-20 11:54 28 10 23 46 110° 5 - 30.57 30.57 0 None
2019-02-20 10:54 27 10 23 48 90° 3 - 30.61 30.60 0 None
2019-02-20 09:54 27 9 22 45 20° 5 - 30.62 30.62 0 None
2019-02-20 08:54 26 8 22 45 30° 3 - 30.62 30.62 0 None
2019-02-20 07:54 26 8 21 45 40° 5 - 30.63 30.63 0 Pressure rising rapidly
2019-02-20 06:54 25 8 - 47 - - - 30.60 30.60 0 6-hr Min Temp (7am): 24.1°F
6-hr Max Temp (7am): 26.1°F
2019-02-20 05:54 25 7 - 45 - - - 30.61 30.61 0 None
2019-02-20 04:54 25 10 16 52 10° 8 - 30.63 30.62 0 None
2019-02-20 03:54 24 9 - 51 - - - 30.62 30.61 0 None
2019-02-20 02:54 24 11 - 56 - - - 30.60 30.60 0 None
2019-02-20 01:54 25 7 15 45 330° 10 - 30.60 30.60 0 None
2019-02-20 00:54 26 5 16 39 340° 10 - 30.59 30.59 0 6-hr Min Temp (1am): 26.1°F
6-hr Max Temp (1am): 30.9°F
2019-02-19 23:54 26 6 16 41 340° 10 - 30.59 30.58 0 24-hr Min Temp (12am): 23.0°F
24-hr Max Temp (12am): 33.1°F
2019-02-19 22:54 27 5 16 38 330° 14 - 30.58 30.58 0 None
2019-02-19 21:54 29 6 15 37 330° 16 23 30.59 30.58 0 None
2019-02-19 20:54 30 7 16 37 320° 16 25 30.58 30.58 0 None
2019-02-19 19:54 30 6 17 35 320° 12 21 30.57 30.56 0 None
2019-02-19 18:54 31 6 18 34 310° 10 23 30.54 30.54 0 6-hr Min Temp (7pm): 30.0°F
6-hr Max Temp (7pm): 33.1°F
2019-02-19 17:54 31 6 18 34 320° 13 21 30.52 30.52 0 None
2019-02-19 16:54 31 6 18 34 300° 14 22 30.52 30.52 0 None
2019-02-19 15:54 33 8 22 34 300° 13 20 30.51 30.51 0 None

Support USWX by starting your Amazon purchase here.